Neodesha, Kansas
Current Conditions -  °F | °C
As of 7:52 AM on Monday 22 Dec 2014 (Local Time) from KPPF Reporting Station
Haze Haze  
Wind Chill:   Ceiling: 400
Heat Index:   Visibility: 2.5mi
Dew Point:   Wind: 5mph
Humidity: 100%   Direction: 150°SSE
Pressure: 29.6"   Gusts: NA
Location:  37.42°N, 95.68°W
Report Text: KPPF 221352Z AUTO 15004KT 2 1/2SM BR OVC004 07/07 A2960 RMK AO2 CIG 003V008 SLP025 T00720072
Loading
Personal Weather Stations






























Interactive Weather Map New forecast layout! Learn more

10-Day Weather Forecast

Advertisements
Track Severe Weather on mobile